Time;durP1;ratioP1;P1;durP2;ratioP2;P2;SDS_P1;SDS_P2;PMS_P1;PMS_P2;Temp;Humidity;BMP_temperature;BMP_pressure;BME280_temperature;BME280_humidity;BME280_pressure;Samples;Min_cycle;Max_cycle;Signal;HPM_P1;HPM_P2
2021/12/09 00:01:40;;;;;;;1.27;1.27;;;;;;;;;;7334339;19;154621;-16
2021/12/09 00:04:16;;;;;;;1.27;1.17;;;;;;;;;;7334272;19;153520;-16
2021/12/09 00:06:51;;;;;;;1.85;1.63;;;;;;;;;;7332867;19;162034;-16
2021/12/09 00:09:23;;;;;;;1.30;1.20;;;;;;;;;;7334299;19;162427;-16
2021/12/09 00:11:54;;;;;;;1.10;1.10;;;;;;;;;;7338137;19;154108;-14
2021/12/09 00:14:28;;;;;;;1.48;1.38;;;;;;;;;;7333564;19;153654;-16
2021/12/09 00:17:02;;;;;;;1.35;1.25;;;;;;;;;;7333648;19;161822;-15
2021/12/09 00:19:34;;;;;;;0.93;0.93;;;;;;;;;;7333382;19;162181;-15
2021/12/09 00:22:11;;;;;;;1.10;1.10;;;;;;;;;;7335256;19;154237;-13
2021/12/09 00:24:42;;;;;;;1.48;1.38;;;;;;;;;;7333489;19;153480;-16
2021/12/09 00:27:14;;;;;;;1.33;1.30;;;;;;;;;;7333185;19;161886;-14
2021/12/09 00:29:45;;;;;;;0.98;0.98;;;;;;;;;;7331932;19;162363;-15
2021/12/09 00:32:17;;;;;;;1.20;1.20;;;;;;;;;;7336906;19;154004;-15
2021/12/09 00:34:50;;;;;;;1.13;1.13;;;;;;;;;;7335067;19;153801;-15
2021/12/09 00:37:29;;;;;;;1.38;1.27;;;;;;;;;;7335480;19;161774;-15
2021/12/09 00:40:00;;;;;;;1.00;1.00;;;;;;;;;;7331374;19;162423;-15
2021/12/09 00:42:32;;;;;;;1.00;1.00;;;;;;;;;;7332869;19;154151;-15
2021/12/09 00:45:03;;;;;;;1.10;1.10;;;;;;;;;;7332983;19;153944;-16
2021/12/09 00:47:34;;;;;;;1.10;1.10;;;;;;;;;;7332460;19;161821;-14
2021/12/09 00:50:07;;;;;;;1.35;1.25;;;;;;;;;;7331531;19;162580;-16
2021/12/09 00:52:41;;;;;;;1.10;1.10;;;;;;;;;;7332824;19;154299;-16
2021/12/09 00:55:13;;;;;;;1.20;1.20;;;;;;;;;;7330427;19;153667;-16
2021/12/09 00:57:46;;;;;;;0.90;0.90;;;;;;;;;;7332391;19;162173;-16
2021/12/09 01:00:20;;;;;;;0.90;0.90;;;;;;;;;;7332213;19;162620;-16
2021/12/09 01:02:52;;;;;;;0.95;0.95;;;;;;;;;;7332752;19;154109;-15
2021/12/09 01:05:24;;;;;;;1.00;1.00;;;;;;;;;;7331661;19;153620;-14
2021/12/09 01:07:59;;;;;;;1.00;1.00;;;;;;;;;;7332183;19;162028;-15
2021/12/09 01:10:31;;;;;;;0.90;0.90;;;;;;;;;;7333810;19;162823;-16
2021/12/09 01:13:02;;;;;;;0.90;0.90;;;;;;;;;;7335101;19;154011;-15
2021/12/09 01:15:34;;;;;;;1.05;1.05;;;;;;;;;;7332281;19;155357;-15
2021/12/09 01:18:05;;;;;;;0.95;0.95;;;;;;;;;;7335305;19;161760;-14
2021/12/09 01:20:37;;;;;;;0.95;0.95;;;;;;;;;;7335093;19;162358;-16
2021/12/09 01:23:11;;;;;;;1.00;1.00;;;;;;;;;;7334794;19;153982;-15
2021/12/09 01:25:43;;;;;;;0.90;0.90;;;;;;;;;;7335466;19;153518;-18
2021/12/09 01:28:21;;;;;;;0.97;0.97;;;;;;;;;;7334419;19;161788;-15
2021/12/09 01:31:00;;;;;;;0.90;0.90;;;;;;;;;;7333637;19;162472;-15
2021/12/09 01:33:32;;;;;;;1.00;1.00;;;;;;;;;;7334700;19;154318;-15
2021/12/09 01:36:04;;;;;;;1.00;1.00;;;;;;;;;;7334556;19;153755;-16
2021/12/09 01:38:38;;;;;;;1.02;1.02;;;;;;;;;;7332972;19;161999;-15
2021/12/09 01:41:09;;;;;;;1.08;1.08;;;;;;;;;;7334440;19;162396;-16
2021/12/09 01:43:40;;;;;;;0.80;0.80;;;;;;;;;;7333033;19;155995;-16
2021/12/09 01:46:14;;;;;;;0.90;0.90;;;;;;;;;;7334315;19;153593;-16
2021/12/09 01:48:48;;;;;;;1.02;1.02;;;;;;;;;;7334516;19;162104;-16
2021/12/09 01:51:20;;;;;;;0.80;0.80;;;;;;;;;;7333791;19;162374;-15
2021/12/09 09:17:43;;;;;;;0.52;0.52;;;;;;;;;;7370218;19;132511;-15
2021/12/09 09:20:17;;;;;;;0.40;0.40;;;;;;;;;;7364822;19;154120;-13
2021/12/09 09:22:49;;;;;;;0.30;0.30;;;;;;;;;;7364697;19;161806;-14
2021/12/09 09:25:29;;;;;;;0.32;0.32;;;;;;;;;;7364626;19;162341;-14
2021/12/09 09:28:01;;;;;;;0.40;0.40;;;;;;;;;;7364979;19;153910;-15
2021/12/09 09:30:37;;;;;;;0.40;0.40;;;;;;;;;;7364497;19;153565;-15
2021/12/09 09:33:13;;;;;;;0.50;0.50;;;;;;;;;;7364164;19;161777;-14
2021/12/09 09:35:46;;;;;;;0.40;0.40;;;;;;;;;;7363560;19;162718;-15
2021/12/09 09:38:18;;;;;;;0.50;0.50;;;;;;;;;;7367246;19;153881;-13
2021/12/09 09:40:59;;;;;;;0.60;0.43;;;;;;;;;;7365559;19;153505;-15
2021/12/09 09:43:43;;;;;;;1.25;0.55;;;;;;;;;;7367110;19;161830;-14
2021/12/09 09:46:19;;;;;;;0.70;0.57;;;;;;;;;;7363601;19;162519;-13
2021/12/09 09:48:54;;;;;;;0.75;0.52;;;;;;;;;;7366722;19;153941;-14
2021/12/09 09:51:27;;;;;;;0.50;0.50;;;;;;;;;;7365650;19;153538;-13
2021/12/09 09:53:59;;;;;;;;;;;;;;;;;;7364450;19;161914;-13
2021/12/09 09:56:32;;;;;;;0.43;0.43;;;;;;;;;;7363243;19;163158;-13
2021/12/09 09:59:06;;;;;;;1.70;0.70;;;;;;;;;;7367049;19;154001;-12
2021/12/09 10:01:41;;;;;;;0.60;0.60;;;;;;;;;;7367904;19;155805;-12
2021/12/09 10:04:25;;;;;;;0.40;0.40;;;;;;;;;;7363801;19;161831;-12
2021/12/09 10:06:57;;;;;;;0.82;0.50;;;;;;;;;;7366576;19;162360;-13
2021/12/09 10:09:28;;;;;;;0.50;0.50;;;;;;;;;;7366930;19;153986;-14
2021/12/09 10:12:01;;;;;;;0.85;0.50;;;;;;;;;;7366553;19;153860;-13
2021/12/09 10:14:34;;;;;;;0.57;0.47;;;;;;;;;;7364154;19;161925;-13
2021/12/09 10:17:09;;;;;;;0.50;0.50;;;;;;;;;;7353198;19;162516;-13
2021/12/09 10:19:50;;;;;;;0.50;0.50;;;;;;;;;;7337689;19;154596;-13
2021/12/09 10:22:25;;;;;;;0.50;0.50;;;;;;;;;;7337629;19;153751;-14
2021/12/09 10:25:00;;;;;;;0.40;0.40;;;;;;;;;;7336527;19;161575;-13
2021/12/09 10:27:35;;;;;;;0.30;0.30;;;;;;;;;;7336430;19;162350;-12
2021/12/09 10:30:20;;;;;;;0.57;0.52;;;;;;;;;;7336540;19;154030;-16
2021/12/09 10:32:55;;;;;;;0.60;0.60;;;;;;;;;;7336564;19;153570;-13
2021/12/09 10:35:29;;;;;;;0.50;0.50;;;;;;;;;;7334536;19;161767;-13
2021/12/09 10:38:07;;;;;;;0.50;0.50;;;;;;;;;;7330658;19;162513;-13
2021/12/09 10:40:39;;;;;;;0.40;0.40;;;;;;;;;;7332864;19;153804;-13
2021/12/09 10:43:10;;;;;;;0.60;0.60;;;;;;;;;;7333836;19;153728;-13
2021/12/09 10:45:42;;;;;;;0.68;0.50;;;;;;;;;;7334576;19;161978;-13
2021/12/09 10:48:24;;;;;;;0.50;0.50;;;;;;;;;;7337470;19;162547;-13
2021/12/09 10:51:23;;;;;;;0.32;0.32;;;;;;;;;;7334811;19;153916;-14
2021/12/09 10:53:58;;;;;;;0.57;0.57;;;;;;;;;;7337647;19;153800;-13
2021/12/09 10:56:33;;;;;;;0.60;0.60;;;;;;;;;;7335806;19;161814;-14
2021/12/09 10:59:05;;;;;;;0.40;0.40;;;;;;;;;;7335537;19;162475;-14
2021/12/09 11:01:37;;;;;;;0.30;0.30;;;;;;;;;;7337771;19;154001;-14
2021/12/09 11:04:08;;;;;;;0.60;0.60;;;;;;;;;;7332158;19;153680;-15
2021/12/09 11:06:44;;;;;;;0.50;0.50;;;;;;;;;;7336269;19;161846;-14
2021/12/09 11:09:15;;;;;;;0.40;0.40;;;;;;;;;;7332136;19;163331;-12
2021/12/09 11:11:51;;;;;;;1.02;0.52;;;;;;;;;;7333143;19;153921;-12
2021/12/09 11:14:27;;;;;;;0.50;0.47;;;;;;;;;;7332637;19;153798;-15
2021/12/09 11:17:04;;;;;;;0.60;0.47;;;;;;;;;;7334036;19;161835;-12
2021/12/09 11:19:40;;;;;;;0.40;0.40;;;;;;;;;;7331044;19;162590;-13
2021/12/09 11:22:19;;;;;;;1.00;0.50;;;;;;;;;;7332641;19;154414;-12
2021/12/09 11:24:58;;;;;;;0.40;0.40;;;;;;;;;;7332085;19;154181;-12
2021/12/09 11:27:30;;;;;;;0.50;0.50;;;;;;;;;;7332164;19;161845;-12
2021/12/09 11:30:09;;;;;;;0.40;0.40;;;;;;;;;;7328942;19;162606;-12
2021/12/09 11:32:45;;;;;;;0.73;0.60;;;;;;;;;;7332339;19;153881;-21
2021/12/09 11:35:24;;;;;;;0.30;0.30;;;;;;;;;;7333074;19;153761;-14
2021/12/09 11:38:06;;;;;;;0.50;0.50;;;;;;;;;;7328131;19;161928;-13
2021/12/09 11:40:44;;;;;;;0.40;0.40;;;;;;;;;;7330397;19;162513;-13
2021/12/09 11:43:24;;;;;;;0.52;0.52;;;;;;;;;;7332025;19;153950;-14
2021/12/09 11:45:57;;;;;;;0.63;0.50;;;;;;;;;;7332432;19;153664;-13
2021/12/09 11:48:30;;;;;;;0.40;0.40;;;;;;;;;;7331583;19;161845;-13
2021/12/09 11:51:01;;;;;;;0.63;0.60;;;;;;;;;;7333672;19;162306;-14
2021/12/09 11:53:38;;;;;;;0.50;0.50;;;;;;;;;;7331904;19;154593;-14
2021/12/09 11:56:21;;;;;;;0.88;0.60;;;;;;;;;;7332593;19;153663;-14
2021/12/09 12:07:33;;;;;;;0.40;0.40;;;;;;;;;;7331410;19;153780;-13
2021/12/09 12:13:00;;;;;;;0.45;0.45;;;;;;;;;;7333657;19;162343;-13
2021/12/09 12:18:44;;;;;;;1.10;0.40;;;;;;;;;;7332370;19;153534;-12
2021/12/09 12:21:55;;;;;;;0.43;0.43;;;;;;;;;;7330030;19;161884;-13
2021/12/09 12:24:45;;;;;;;0.40;0.40;;;;;;;;;;7334596;19;162576;-13
2021/12/09 12:27:40;;;;;;;0.50;0.50;;;;;;;;;;7333854;19;153967;-14
2021/12/09 12:38:37;;;;;;;0.38;0.38;;;;;;;;;;7328803;19;154155;-12
2021/12/09 12:41:14;;;;;;;0.40;0.40;;;;;;;;;;7329793;19;153907;-13
2021/12/09 12:43:56;;;;;;;0.50;0.50;;;;;;;;;;7329739;19;161819;-13
2021/12/09 12:46:46;;;;;;;2.75;2.55;;;;;;;;;;7332199;19;162354;-15
2021/12/09 12:49:27;;;;;;;9.63;8.63;;;;;;;;;;7330377;19;153962;-12
2021/12/09 12:52:05;;;;;;;11.93;10.63;;;;;;;;;;7330260;19;153473;-14
2021/12/09 12:54:51;;;;;;;14.85;12.57;;;;;;;;;;7329940;19;161893;-13
2021/12/09 12:57:43;;;;;;;10.48;9.32;;;;;;;;;;7332038;19;162410;-14
2021/12/09 13:00:22;;;;;;;7.70;6.22;;;;;;;;;;7332883;19;154722;-14
2021/12/09 13:03:13;;;;;;;6.25;5.65;;;;;;;;;;7332694;19;153546;-13
2021/12/09 13:06:08;;;;;;;5.45;4.95;;;;;;;;;;7330558;19;162033;-12
2021/12/09 13:11:45;;;;;;;5.90;5.40;;;;;;;;;;7329334;19;154178;-15
2021/12/09 13:14:23;;;;;;;5.97;5.38;;;;;;;;;;7329453;19;153598;-13
2021/12/09 13:19:59;;;;;;;5.63;5.13;;;;;;;;;;7329755;19;162491;-16
2021/12/09 13:22:37;;;;;;;5.45;4.95;;;;;;;;;;7329097;19;154092;-14
2021/12/09 13:25:17;;;;;;;5.72;5.20;;;;;;;;;;7327328;19;153625;-15
2021/12/09 13:27:57;;;;;;;6.03;5.40;;;;;;;;;;7330005;19;161959;-14
2021/12/09 13:30:50;;;;;;;6.68;5.13;;;;;;;;;;7332367;19;162360;-14
2021/12/09 13:33:48;;;;;;;5.30;4.80;;;;;;;;;;7328927;19;154087;-15
2021/12/09 13:36:36;;;;;;;5.30;4.80;;;;;;;;;;7330541;19;153618;-14
2021/12/09 13:39:27;;;;;;;5.32;4.82;;;;;;;;;;7325811;19;161901;-14
2021/12/09 13:47:38;;;;;;;5.30;4.80;;;;;;;;;;7332577;19;153550;-13
2021/12/09 13:50:38;;;;;;;5.30;4.80;;;;;;;;;;7328082;19;161720;-13
2021/12/09 13:55:53;;;;;;;5.03;4.60;;;;;;;;;;7335372;19;153986;-14
2021/12/09 13:58:24;;;;;;;5.40;4.90;;;;;;;;;;7338413;19;153860;-14
2021/12/09 14:00:56;;;;;;;4.95;4.55;;;;;;;;;;7337553;19;161793;-13
2021/12/09 14:03:28;;;;;;;5.13;4.72;;;;;;;;;;7337960;19;162462;-13
2021/12/09 14:06:08;;;;;;;4.88;4.47;;;;;;;;;;7334586;19;154002;-15
2021/12/09 14:08:45;;;;;;;4.20;3.85;;;;;;;;;;7336721;19;153736;-14
2021/12/09 14:11:23;;;;;;;5.05;4.55;;;;;;;;;;7334206;19;162131;-13
2021/12/09 14:14:00;;;;;;;5.35;4.85;;;;;;;;;;7337816;19;162384;-14
2021/12/09 14:16:47;;;;;;;4.47;4.07;;;;;;;;;;7333455;19;154119;-14
2021/12/09 14:22:14;;;;;;;4.82;4.43;;;;;;;;;;7333851;19;162110;-14
2021/12/09 14:24:46;;;;;;;4.72;4.32;;;;;;;;;;7333725;19;162363;-14
2021/12/09 14:27:20;;;;;;;9.57;8.73;;;;;;;;;;7334525;19;153836;-14
2021/12/09 14:29:53;;;;;;;8.32;7.53;;;;;;;;;;7336790;19;153632;-13
2021/12/09 14:32:30;;;;;;;7.85;7.10;;;;;;;;;;7337188;19;162030;-12
2021/12/09 14:35:03;;;;;;;7.95;7.15;;;;;;;;;;7334700;19;162282;-12
2021/12/09 14:37:45;;;;;;;6.70;6.10;;;;;;;;;;7334329;19;154147;-13
2021/12/09 14:40:19;;;;;;;6.63;5.72;;;;;;;;;;7331170;19;153534;-13
2021/12/09 14:42:54;;;;;;;5.13;4.63;;;;;;;;;;7333488;19;161832;-12
2021/12/09 14:45:28;;;;;;;5.57;3.67;;;;;;;;;;7333669;19;162339;-13
2021/12/09 14:48:02;;;;;;;4.35;3.95;;;;;;;;;;7333839;19;154067;-13
2021/12/09 14:50:38;;;;;;;3.60;3.15;;;;;;;;;;7333975;19;153563;-13
2021/12/09 14:53:35;;;;;;;2.55;2.35;;;;;;;;;;7333273;19;161833;-13
2021/12/09 14:56:08;;;;;;;3.00;2.67;;;;;;;;;;7333339;19;162525;-12
2021/12/09 14:58:40;;;;;;;2.63;2.42;;;;;;;;;;7333371;19;153987;-12
2021/12/09 15:01:16;;;;;;;2.40;2.20;;;;;;;;;;7333330;19;153658;-13
2021/12/09 15:03:55;;;;;;;1.90;1.80;;;;;;;;;;7332430;19;162214;-15
2021/12/09 15:06:32;;;;;;;2.17;1.70;;;;;;;;;;7332799;19;162315;-15
2021/12/09 15:09:14;;;;;;;2.28;2.00;;;;;;;;;;7333141;19;154062;-11
2021/12/09 15:11:47;;;;;;;1.52;1.30;;;;;;;;;;7333251;19;153623;-13
2021/12/09 15:14:26;;;;;;;1.52;1.42;;;;;;;;;;7332617;19;161869;-16
2021/12/09 15:17:16;;;;;;;1.10;1.10;;;;;;;;;;7330836;19;162493;-14
2021/12/09 15:20:03;;;;;;;1.00;1.00;;;;;;;;;;7330720;19;154147;-14
2021/12/09 15:22:52;;;;;;;1.70;1.60;;;;;;;;;;7336407;19;153665;-15
2021/12/09 15:25:33;;;;;;;4.95;3.63;;;;;;;;;;7331262;19;161816;-14
2021/12/09 15:28:07;;;;;;;3.92;3.63;;;;;;;;;;7330619;19;162381;-15
2021/12/09 15:30:57;;;;;;;3.90;3.60;;;;;;;;;;7332697;19;153959;-13
2021/12/09 15:33:41;;;;;;;3.80;3.40;;;;;;;;;;7332513;19;153602;-15
2021/12/09 15:36:16;;;;;;;2.97;2.67;;;;;;;;;;7330279;19;161545;-13
2021/12/09 15:38:58;;;;;;;2.65;2.45;;;;;;;;;;7327446;19;162668;-13
2021/12/09 15:41:34;;;;;;;2.75;2.55;;;;;;;;;;7330124;19;154728;-13
2021/12/09 15:44:13;;;;;;;2.60;2.40;;;;;;;;;;7330242;19;153564;-13
2021/12/09 15:46:51;;;;;;;3.13;2.50;;;;;;;;;;7329929;19;161882;-13
2021/12/09 15:49:24;;;;;;;2.30;2.10;;;;;;;;;;7330098;19;162782;-13
2021/12/09 15:51:58;;;;;;;2.30;2.10;;;;;;;;;;7331500;19;154020;-13
2021/12/09 15:54:38;;;;;;;2.65;2.30;;;;;;;;;;7331625;19;153687;-14
2021/12/09 15:57:16;;;;;;;2.60;2.40;;;;;;;;;;7331412;19;162064;-14
2021/12/09 15:59:48;;;;;;;2.75;2.25;;;;;;;;;;7330704;19;162585;-15
2021/12/09 16:02:23;;;;;;;2.15;2.00;;;;;;;;;;7331435;19;154246;-14
2021/12/09 16:04:54;;;;;;;2.10;2.00;;;;;;;;;;7331800;19;153507;-15
2021/12/09 16:07:25;;;;;;;1.92;1.83;;;;;;;;;;7331344;19;161779;-13
2021/12/09 16:09:57;;;;;;;1.92;1.80;;;;;;;;;;7331056;19;162464;-14
2021/12/09 16:12:31;;;;;;;2.20;2.00;;;;;;;;;;7331329;19;154263;-13
2021/12/09 16:15:04;;;;;;;1.90;1.80;;;;;;;;;;7329770;19;153627;-13
2021/12/09 16:17:36;;;;;;;1.77;1.67;;;;;;;;;;7326855;19;161829;-15
2021/12/09 16:20:10;;;;;;;1.77;1.67;;;;;;;;;;7329711;19;163015;-30
2021/12/09 16:22:42;;;;;;;1.75;1.65;;;;;;;;;;7330066;19;154027;-13
2021/12/09 16:25:15;;;;;;;1.70;1.60;;;;;;;;;;7330950;19;153702;-13
2021/12/09 16:27:51;;;;;;;1.80;1.70;;;;;;;;;;7330447;19;161812;-13
2021/12/09 16:30:24;;;;;;;1.77;1.67;;;;;;;;;;7329857;19;162117;-24
2021/12/09 16:32:56;;;;;;;1.58;1.48;;;;;;;;;;7330214;19;154039;-32
2021/12/09 16:35:31;;;;;;;1.83;1.70;;;;;;;;;;7330458;19;153507;-14
2021/12/09 16:38:02;;;;;;;1.80;1.70;;;;;;;;;;7329132;19;162030;-14
2021/12/09 16:40:36;;;;;;;1.67;1.58;;;;;;;;;;7329055;19;162509;-13
2021/12/09 16:43:15;;;;;;;1.98;1.50;;;;;;;;;;7330585;19;154138;-14
2021/12/09 16:45:47;;;;;;;1.63;1.52;;;;;;;;;;7330549;19;153293;-13
2021/12/09 16:48:19;;;;;;;1.67;1.58;;;;;;;;;;7330059;19;161959;-14
2021/12/09 16:50:53;;;;;;;2.05;1.50;;;;;;;;;;7329976;19;163129;-13
2021/12/09 16:53:27;;;;;;;1.70;1.60;;;;;;;;;;7330275;19;154400;-13
2021/12/09 16:56:07;;;;;;;1.60;1.50;;;;;;;;;;7330215;19;153541;-20
2021/12/09 16:58:47;;;;;;;1.55;1.45;;;;;;;;;;7329520;19;162500;-13
2021/12/09 17:01:19;;;;;;;1.60;1.50;;;;;;;;;;7327974;19;162362;-15
2021/12/09 17:03:50;;;;;;;1.38;1.27;;;;;;;;;;7329954;19;154106;-13
2021/12/09 17:06:21;;;;;;;1.38;1.27;;;;;;;;;;7329860;19;153529;-13
2021/12/09 17:08:53;;;;;;;1.27;1.27;;;;;;;;;;7329241;19;161945;-21
2021/12/09 17:11:32;;;;;;;2.17;1.30;;;;;;;;;;7329269;19;162309;-15
2021/12/09 17:14:08;;;;;;;1.20;1.17;;;;;;;;;;7329680;19;153918;-13
2021/12/09 17:16:39;;;;;;;1.73;1.48;;;;;;;;;;7328117;19;153527;-12
2021/12/09 17:19:12;;;;;;;1.25;1.15;;;;;;;;;;7328993;19;161810;-13
2021/12/09 17:21:43;;;;;;;;;;;;;;;;;;7327614;19;162381;-12
2021/12/09 17:24:15;;;;;;;1.10;1.10;;;;;;;;;;7329339;19;154205;-15
2021/12/09 17:26:48;;;;;;;0.90;0.90;;;;;;;;;;7329080;19;153822;-17
2021/12/09 17:29:23;;;;;;;1.15;1.15;;;;;;;;;;7335751;19;161875;-13
2021/12/09 17:31:54;;;;;;;1.08;1.08;;;;;;;;;;7335420;19;162381;-16
2021/12/09 17:34:30;;;;;;;1.40;1.30;;;;;;;;;;7335878;19;154034;-12
2021/12/09 17:37:06;;;;;;;0.90;0.90;;;;;;;;;;7335017;19;153498;-13
2021/12/09 17:39:39;;;;;;;1.60;1.10;;;;;;;;;;7335474;19;161785;-14
2021/12/09 17:42:10;;;;;;;0.88;0.88;;;;;;;;;;7332052;19;162576;-13
2021/12/09 17:44:47;;;;;;;0.90;0.90;;;;;;;;;;7339541;19;153947;-14
2021/12/09 17:47:18;;;;;;;0.90;0.90;;;;;;;;;;7335322;19;153904;-14
2021/12/09 17:49:51;;;;;;;0.90;0.90;;;;;;;;;;7336835;19;161740;-58
2021/12/09 17:52:29;;;;;;;0.98;0.98;;;;;;;;;;7338741;19;162514;-12
2021/12/09 17:55:00;;;;;;;1.10;1.10;;;;;;;;;;7335183;19;153971;-17
2021/12/09 17:57:31;;;;;;;0.90;0.90;;;;;;;;;;7335176;19;153462;-14
2021/12/09 18:00:09;;;;;;;0.95;0.95;;;;;;;;;;7334629;19;161839;-14
2021/12/09 18:02:43;;;;;;;0.80;0.80;;;;;;;;;;7332665;19;162397;-14
2021/12/09 18:05:19;;;;;;;1.00;1.00;;;;;;;;;;7334773;19;154569;-13
2021/12/09 18:07:51;;;;;;;0.77;0.77;;;;;;;;;;7334930;19;153519;-14
2021/12/09 18:10:22;;;;;;;1.17;1.08;;;;;;;;;;7334372;19;161761;-15
2021/12/09 18:12:54;;;;;;;0.90;0.90;;;;;;;;;;7334131;19;162438;-14
2021/12/09 18:15:34;;;;;;;1.00;1.00;;;;;;;;;;7334381;19;154065;-15
2021/12/09 18:18:08;;;;;;;0.88;0.88;;;;;;;;;;7330913;19;153666;-15
2021/12/09 18:20:41;;;;;;;1.50;0.90;;;;;;;;;;7335026;19;161843;-13
2021/12/09 18:23:13;;;;;;;0.70;0.70;;;;;;;;;;7336042;19;162499;-16
2021/12/09 18:25:48;;;;;;;0.90;0.90;;;;;;;;;;7338272;19;154312;-13
2021/12/09 18:28:24;;;;;;;0.80;0.80;;;;;;;;;;7334368;19;153676;-13
2021/12/09 18:30:59;;;;;;;0.80;0.80;;;;;;;;;;7333864;19;161799;-14
2021/12/09 18:33:31;;;;;;;0.95;0.95;;;;;;;;;;7333640;19;162427;-16
2021/12/09 18:36:10;;;;;;;0.80;0.80;;;;;;;;;;7332694;19;154276;-15
2021/12/09 18:38:42;;;;;;;0.80;0.80;;;;;;;;;;7331292;19;154392;-14
2021/12/09 18:41:20;;;;;;;1.20;1.10;;;;;;;;;;7333052;19;161875;-15
2021/12/09 18:43:56;;;;;;;0.80;0.80;;;;;;;;;;7333876;19;162388;-23
2021/12/09 18:46:31;;;;;;;0.70;0.70;;;;;;;;;;7333561;19;153959;-17
2021/12/09 18:49:02;;;;;;;0.70;0.70;;;;;;;;;;7333667;19;153595;-31
2021/12/09 18:51:35;;;;;;;0.90;0.90;;;;;;;;;;7333354;19;161863;-18
2021/12/09 18:54:10;;;;;;;1.00;1.00;;;;;;;;;;7333077;19;162366;-15
2021/12/09 18:56:41;;;;;;;0.90;0.90;;;;;;;;;;7333374;19;154149;-12
2021/12/09 18:59:13;;;;;;;1.02;1.02;;;;;;;;;;7333498;19;153603;-13
2021/12/09 19:01:47;;;;;;;0.73;0.73;;;;;;;;;;7332406;19;161818;-14
2021/12/09 19:04:18;;;;;;;0.93;0.93;;;;;;;;;;7333017;19;162350;-14
2021/12/09 19:06:50;;;;;;;0.63;0.63;;;;;;;;;;7333231;19;153965;-14
2021/12/09 19:09:22;;;;;;;0.80;0.80;;;;;;;;;;7333355;19;153552;-15
2021/12/09 19:11:53;;;;;;;0.90;0.90;;;;;;;;;;7332662;19;161988;-15
2021/12/09 19:14:25;;;;;;;0.75;0.75;;;;;;;;;;7332412;19;162329;-15
2021/12/09 19:17:03;;;;;;;1.13;1.02;;;;;;;;;;7331577;19;154408;-18
2021/12/09 19:19:35;;;;;;;0.70;0.70;;;;;;;;;;7332894;19;153475;-15
2021/12/09 19:22:07;;;;;;;1.00;1.00;;;;;;;;;;7333136;19;161939;-16
2021/12/09 19:24:38;;;;;;;0.90;0.90;;;;;;;;;;7334300;19;162794;-13
2021/12/09 19:27:10;;;;;;;0.90;0.90;;;;;;;;;;7335690;19;153979;-15
2021/12/09 19:29:41;;;;;;;0.75;0.75;;;;;;;;;;7335238;19;153526;-14
2021/12/09 19:32:15;;;;;;;0.52;0.52;;;;;;;;;;7335144;19;162028;-14
2021/12/09 19:34:47;;;;;;;0.70;0.70;;;;;;;;;;7333344;19;162375;-13
2021/12/09 19:37:18;;;;;;;0.77;0.77;;;;;;;;;;7335369;19;154108;-13
2021/12/09 19:39:49;;;;;;;0.93;0.93;;;;;;;;;;7335072;19;153632;-15
2021/12/09 19:42:21;;;;;;;0.70;0.70;;;;;;;;;;7333698;19;161846;-14
2021/12/09 19:44:52;;;;;;;0.90;0.90;;;;;;;;;;7333908;19;162649;-13
2021/12/09 19:47:26;;;;;;;0.70;0.70;;;;;;;;;;7335180;19;154447;-14
2021/12/09 19:49:58;;;;;;;0.77;0.77;;;;;;;;;;7329680;19;153568;-13
2021/12/09 19:52:29;;;;;;;0.60;0.60;;;;;;;;;;7331940;19;161961;-12
2021/12/09 19:55:01;;;;;;;0.70;0.70;;;;;;;;;;7331495;19;162551;-14
2021/12/09 19:57:32;;;;;;;0.70;0.70;;;;;;;;;;7330538;19;154179;-14
2021/12/09 20:00:04;;;;;;;0.70;0.70;;;;;;;;;;7331615;19;153532;-14
2021/12/09 20:02:41;;;;;;;0.70;0.70;;;;;;;;;;7330366;19;161934;-15
2021/12/09 20:05:13;;;;;;;0.65;0.65;;;;;;;;;;7331421;19;162398;-14
2021/12/09 20:07:46;;;;;;;0.70;0.70;;;;;;;;;;7331121;19;154369;-15
2021/12/09 20:10:18;;;;;;;;;;;;;;;;;;7335276;19;153912;-15
2021/12/09 20:12:50;;;;;;;0.70;0.70;;;;;;;;;;7334620;19;161989;-14
2021/12/09 20:15:22;;;;;;;0.98;0.93;;;;;;;;;;7330892;19;162352;-12
2021/12/09 20:17:56;;;;;;;0.82;0.82;;;;;;;;;;7328449;19;154146;-14
2021/12/09 20:20:28;;;;;;;0.70;0.70;;;;;;;;;;7330941;19;153500;-17
2021/12/09 20:23:10;;;;;;;0.80;0.80;;;;;;;;;;7328400;19;161937;-15
2021/12/09 20:25:42;;;;;;;1.00;0.88;;;;;;;;;;7330715;19;162434;-15
2021/12/09 20:28:13;;;;;;;0.80;0.80;;;;;;;;;;7330966;19;153962;-14
2021/12/09 20:30:44;;;;;;;1.02;0.80;;;;;;;;;;7330855;19;153690;-14
2021/12/09 20:33:18;;;;;;;0.73;0.73;;;;;;;;;;7330303;19;162012;-34
2021/12/09 20:35:51;;;;;;;0.73;0.73;;;;;;;;;;7330238;19;162563;-16
2021/12/09 20:38:22;;;;;;;0.83;0.83;;;;;;;;;;7330643;19;153981;-14
2021/12/09 20:40:53;;;;;;;0.68;0.68;;;;;;;;;;7330512;19;153705;-21
2021/12/09 20:43:25;;;;;;;0.70;0.70;;;;;;;;;;7329048;19;161959;-13
2021/12/09 20:45:56;;;;;;;0.70;0.70;;;;;;;;;;7328929;19;162139;-14
2021/12/09 20:48:30;;;;;;;0.80;0.80;;;;;;;;;;7330387;19;154094;-15
2021/12/09 20:51:05;;;;;;;2.80;1.85;;;;;;;;;;7327899;19;153672;-12
2021/12/09 20:53:36;;;;;;;2.40;2.03;;;;;;;;;;7331712;19;162141;-14
2021/12/09 20:56:08;;;;;;;1.35;1.25;;;;;;;;;;7329611;19;162534;-14
2021/12/09 20:58:39;;;;;;;1.25;0.88;;;;;;;;;;7329918;19;153899;-18
2021/12/09 21:01:11;;;;;;;1.00;1.00;;;;;;;;;;7331238;19;153500;-16
2021/12/09 21:03:45;;;;;;;1.15;1.08;;;;;;;;;;7328075;19;161883;-15
2021/12/09 21:06:16;;;;;;;1.15;1.15;;;;;;;;;;7327908;19;162779;-15
2021/12/09 21:08:48;;;;;;;0.85;0.85;;;;;;;;;;7328397;19;154015;-15
2021/12/09 21:11:26;;;;;;;1.40;1.35;;;;;;;;;;7329623;19;153629;-13
2021/12/09 21:13:59;;;;;;;1.38;1.27;;;;;;;;;;7329429;19;161851;-14
2021/12/09 21:16:32;;;;;;;;;;;;;;;;;;7327965;19;162434;-13
2021/12/09 21:19:07;;;;;;;1.13;1.10;;;;;;;;;;7332994;19;154210;-15
2021/12/09 21:21:38;;;;;;;1.00;1.00;;;;;;;;;;7328785;19;153481;-14
2021/12/09 21:24:10;;;;;;;1.10;1.05;;;;;;;;;;7326611;19;161782;-13
2021/12/09 21:26:41;;;;;;;1.83;1.73;;;;;;;;;;7328596;19;162166;-14
2021/12/09 21:29:19;;;;;;;1.65;1.38;;;;;;;;;;7328988;19;154020;-16
2021/12/09 21:31:51;;;;;;;2.45;1.27;;;;;;;;;;7328555;19;153580;-14
2021/12/09 21:34:29;;;;;;;1.33;1.23;;;;;;;;;;7327723;19;161807;-13
2021/12/09 21:37:09;;;;;;;1.15;1.13;;;;;;;;;;7328322;19;162692;-16
2021/12/09 21:39:41;;;;;;;1.60;1.50;;;;;;;;;;7328651;19;153845;-12
2021/12/09 21:42:13;;;;;;;1.48;1.38;;;;;;;;;;7327540;19;153832;-14
2021/12/09 21:44:44;;;;;;;1.20;1.20;;;;;;;;;;7326256;19;162098;-15
2021/12/09 21:47:16;;;;;;;1.38;1.27;;;;;;;;;;7327688;19;162563;-14
2021/12/09 21:49:50;;;;;;;1.35;1.30;;;;;;;;;;7328182;19;154058;-14
2021/12/09 21:52:22;;;;;;;1.52;1.25;;;;;;;;;;7327934;19;153522;-15
2021/12/09 21:54:53;;;;;;;1.17;1.15;;;;;;;;;;7328105;19;161835;-14
2021/12/09 21:57:24;;;;;;;1.35;1.33;;;;;;;;;;7328196;19;162351;-14
2021/12/09 21:59:56;;;;;;;1.55;1.45;;;;;;;;;;7327293;19;154035;-13
2021/12/09 22:02:28;;;;;;;1.35;1.25;;;;;;;;;;7328066;19;153392;-16
2021/12/09 22:05:03;;;;;;;1.13;1.13;;;;;;;;;;7325699;19;161829;-15
2021/12/09 22:07:34;;;;;;;1.30;1.30;;;;;;;;;;7327437;19;162390;-14
2021/12/09 22:10:09;;;;;;;1.10;1.10;;;;;;;;;;7327694;19;154051;-15
2021/12/09 22:12:43;;;;;;;1.30;1.23;;;;;;;;;;7326646;19;153485;-14
2021/12/09 22:15:16;;;;;;;1.40;1.30;;;;;;;;;;7334170;19;161902;-14
2021/12/09 22:17:49;;;;;;;1.35;1.30;;;;;;;;;;7330754;19;162833;-14
2021/12/09 22:20:23;;;;;;;1.95;1.30;;;;;;;;;;7333254;19;154731;-15
2021/12/09 22:22:54;;;;;;;1.10;1.10;;;;;;;;;;7334162;19;153285;-15
2021/12/09 22:25:26;;;;;;;1.10;1.10;;;;;;;;;;7331989;19;161807;-14
2021/12/09 22:27:57;;;;;;;1.20;1.20;;;;;;;;;;7335861;19;162628;-14
2021/12/09 22:30:29;;;;;;;1.15;1.15;;;;;;;;;;7338689;19;154027;-13
2021/12/09 22:33:01;;;;;;;1.10;1.10;;;;;;;;;;7337205;19;153493;-15
2021/12/09 22:35:35;;;;;;;1.58;1.33;;;;;;;;;;7336908;19;161901;-14
2021/12/09 22:38:07;;;;;;;1.10;1.10;;;;;;;;;;7333557;19;162596;-14
2021/12/09 22:40:38;;;;;;;1.35;1.25;;;;;;;;;;7333789;19;154136;-16
2021/12/09 22:43:10;;;;;;;0.95;0.93;;;;;;;;;;7332825;19;153699;-13
2021/12/09 22:45:41;;;;;;;1.23;1.20;;;;;;;;;;7330420;19;161921;-13
2021/12/09 22:48:16;;;;;;;1.50;1.30;;;;;;;;;;7333259;19;162373;-15
2021/12/09 22:51:01;;;;;;;1.10;1.10;;;;;;;;;;7332181;19;154130;-14
2021/12/09 22:53:34;;;;;;;1.50;1.40;;;;;;;;;;7333665;19;153682;-15
2021/12/09 22:56:06;;;;;;;;;;;;;;;;;;7333429;19;161846;-15
2021/12/09 22:58:40;;;;;;;1.55;1.27;;;;;;;;;;7332963;19;162502;-14
2021/12/09 23:01:15;;;;;;;1.20;1.20;;;;;;;;;;7332865;19;153972;-14
2021/12/09 23:03:46;;;;;;;1.10;1.10;;;;;;;;;;7333245;19;153602;-14
2021/12/09 23:06:20;;;;;;;1.42;1.35;;;;;;;;;;7333390;19;161856;-14
2021/12/09 23:08:57;;;;;;;1.25;1.25;;;;;;;;;;7335910;19;162326;-14
2021/12/09 23:11:31;;;;;;;1.23;1.20;;;;;;;;;;7334623;19;154363;-14
2021/12/09 23:14:10;;;;;;;1.48;1.17;;;;;;;;;;7336225;19;153578;-14
2021/12/09 23:16:42;;;;;;;1.35;1.25;;;;;;;;;;7331136;19;161905;-14
2021/12/09 23:19:14;;;;;;;1.13;1.13;;;;;;;;;;7335188;19;162527;-16
2021/12/09 23:21:49;;;;;;;1.20;1.20;;;;;;;;;;7334347;19;154090;-15